sensor_id;sensor_type;location;lat;lon;timestamp;pressure;altitude;pressure_sealevel;temperature;humidity
11444;BME280;5778;47.856;12.154;2023-01-16T00:01:54;95467.47;;;1.28;100.00
11444;BME280;5778;47.856;12.154;2023-01-16T00:04:22;95466.28;;;1.24;100.00
11444;BME280;5778;47.856;12.154;2023-01-16T00:06:49;95456.41;;;1.26;100.00
11444;BME280;5778;47.856;12.154;2023-01-16T00:09:16;95456.47;;;1.19;100.00
11444;BME280;5778;47.856;12.154;2023-01-16T00:11:43;95448.72;;;1.31;100.00
11444;BME280;5778;47.856;12.154;2023-01-16T00:14:10;95448.41;;;1.39;100.00
11444;BME280;5778;47.856;12.154;2023-01-16T00:16:38;95440.91;;;1.24;100.00
11444;BME280;5778;47.856;12.154;2023-01-16T00:19:05;95445.50;;;1.29;100.00
11444;BME280;5778;47.856;12.154;2023-01-16T00:21:32;95443.03;;;1.34;100.00
11444;BME280;5778;47.856;12.154;2023-01-16T00:24:00;95433.56;;;1.33;100.00
11444;BME280;5778;47.856;12.154;2023-01-16T00:26:28;95424.69;;;1.34;100.00
11444;BME280;5778;47.856;12.154;2023-01-16T00:28:55;95418.44;;;1.35;100.00
11444;BME280;5778;47.856;12.154;2023-01-16T00:31:22;95411.97;;;1.37;100.00
11444;BME280;5778;47.856;12.154;2023-01-16T00:33:51;95398.88;;;1.37;100.00
11444;BME280;5778;47.856;12.154;2023-01-16T00:36:18;95391.81;;;1.38;100.00
11444;BME280;5778;47.856;12.154;2023-01-16T00:38:46;95397.78;;;1.27;100.00
11444;BME280;5778;47.856;12.154;2023-01-16T00:41:13;95395.44;;;1.19;100.00
11444;BME280;5778;47.856;12.154;2023-01-16T00:43:41;95390.50;;;1.29;100.00
11444;BME280;5778;47.856;12.154;2023-01-16T00:46:08;95395.75;;;1.29;100.00
11444;BME280;5778;47.856;12.154;2023-01-16T00:48:35;95395.38;;;1.25;100.00
11444;BME280;5778;47.856;12.154;2023-01-16T00:51:04;95397.41;;;1.23;100.00
11444;BME280;5778;47.856;12.154;2023-01-16T00:53:31;95384.53;;;1.22;100.00
11444;BME280;5778;47.856;12.154;2023-01-16T00:55:58;95387.22;;;1.15;100.00
11444;BME280;5778;47.856;12.154;2023-01-16T00:58:25;95378.63;;;1.08;100.00
11444;BME280;5778;47.856;12.154;2023-01-16T01:00:52;95382.38;;;0.94;100.00
11444;BME280;5778;47.856;12.154;2023-01-16T01:03:19;95371.19;;;0.63;100.00
11444;BME280;5778;47.856;12.154;2023-01-16T01:05:47;95371.72;;;0.71;100.00
11444;BME280;5778;47.856;12.154;2023-01-16T01:08:15;95363.91;;;0.65;100.00
11444;BME280;5778;47.856;12.154;2023-01-16T01:10:42;95370.38;;;0.62;100.00
11444;BME280;5778;47.856;12.154;2023-01-16T01:13:10;95370.50;;;0.74;100.00
11444;BME280;5778;47.856;12.154;2023-01-16T01:15:37;95368.25;;;0.77;100.00
11444;BME280;5778;47.856;12.154;2023-01-16T01:18:04;95362.81;;;0.79;100.00
11444;BME280;5778;47.856;12.154;2023-01-16T01:20:32;95358.22;;;0.74;100.00
11444;BME280;5778;47.856;12.154;2023-01-16T01:23:00;95356.06;;;0.65;100.00
11444;BME280;5778;47.856;12.154;2023-01-16T01:25:28;95353.47;;;0.65;100.00
11444;BME280;5778;47.856;12.154;2023-01-16T01:27:55;95350.22;;;0.69;100.00
11444;BME280;5778;47.856;12.154;2023-01-16T01:30:22;95340.38;;;0.65;100.00
11444;BME280;5778;47.856;12.154;2023-01-16T01:32:49;95341.34;;;0.70;100.00
11444;BME280;5778;47.856;12.154;2023-01-16T01:35:16;95351.06;;;0.39;100.00
11444;BME280;5778;47.856;12.154;2023-01-16T01:37:45;95341.84;;;0.05;100.00
11444;BME280;5778;47.856;12.154;2023-01-16T01:40:12;95332.59;;;0.09;100.00
11444;BME280;5778;47.856;12.154;2023-01-16T01:42:41;95333.88;;;0.25;100.00
11444;BME280;5778;47.856;12.154;2023-01-16T01:45:20;95326.56;;;0.33;100.00
11444;BME280;5778;47.856;12.154;2023-01-16T01:47:52;95323.53;;;0.36;100.00
11444;BME280;5778;47.856;12.154;2023-01-16T01:50:33;95310.19;;;0.44;100.00
11444;BME280;5778;47.856;12.154;2023-01-16T01:53:04;95307.38;;;0.46;100.00
11444;BME280;5778;47.856;12.154;2023-01-16T01:55:33;95297.44;;;0.30;100.00
11444;BME280;5778;47.856;12.154;2023-01-16T01:58:02;95297.44;;;0.30;100.00
11444;BME280;5778;47.856;12.154;2023-01-16T02:00:30;95299.41;;;0.34;100.00
11444;BME280;5778;47.856;12.154;2023-01-16T02:03:06;95292.78;;;0.32;100.00
11444;BME280;5778;47.856;12.154;2023-01-16T02:05:37;95289.19;;;0.33;100.00
11444;BME280;5778;47.856;12.154;2023-01-16T02:08:10;95281.06;;;0.41;100.00
11444;BME280;5778;47.856;12.154;2023-01-16T02:10:43;95278.81;;;0.44;100.00
11444;BME280;5778;47.856;12.154;2023-01-16T02:13:14;95275.81;;;0.41;100.00
11444;BME280;5778;47.856;12.154;2023-01-16T02:15:41;95261.94;;;0.40;100.00
11444;BME280;5778;47.856;12.154;2023-01-16T02:18:23;95263.56;;;0.41;100.00
11444;BME280;5778;47.856;12.154;2023-01-16T02:21:20;95251.50;;;0.16;100.00
11444;BME280;5778;47.856;12.154;2023-01-16T02:27:13;95241.59;;;0.00;100.00
11444;BME280;5778;47.856;12.154;2023-01-16T02:32:51;95228.31;;;0.01;100.00
11444;BME280;5778;47.856;12.154;2023-01-16T02:35:36;95215.34;;;0.13;100.00
11444;BME280;5778;47.856;12.154;2023-01-16T02:38:13;95207.72;;;0.11;100.00
11444;BME280;5778;47.856;12.154;2023-01-16T02:40:48;95201.25;;;0.14;100.00
11444;BME280;5778;47.856;12.154;2023-01-16T02:43:29;95192.09;;;0.05;100.00
11444;BME280;5778;47.856;12.154;2023-01-16T02:46:06;95185.88;;;0.06;100.00
11444;BME280;5778;47.856;12.154;2023-01-16T02:48:41;95181.06;;;0.03;100.00
11444;BME280;5778;47.856;12.154;2023-01-16T02:51:16;95181.63;;;0.05;100.00
11444;BME280;5778;47.856;12.154;2023-01-16T02:53:56;95173.94;;;0.10;100.00
11444;BME280;5778;47.856;12.154;2023-01-16T02:56:31;95167.59;;;0.06;100.00
11444;BME280;5778;47.856;12.154;2023-01-16T02:59:01;95167.19;;;0.02;100.00
11444;BME280;5778;47.856;12.154;2023-01-16T03:01:28;95164.22;;;-0.01;100.00
11444;BME280;5778;47.856;12.154;2023-01-16T03:04:04;95157.34;;;0.04;100.00
11444;BME280;5778;47.856;12.154;2023-01-16T03:06:41;95149.56;;;-0.02;100.00
11444;BME280;5778;47.856;12.154;2023-01-16T03:09:30;95147.38;;;-0.05;100.00
11444;BME280;5778;47.856;12.154;2023-01-16T03:12:11;95142.72;;;-0.03;100.00
11444;BME280;5778;47.856;12.154;2023-01-16T03:14:50;95137.44;;;0.03;100.00
11444;BME280;5778;47.856;12.154;2023-01-16T03:17:32;95133.91;;;-0.27;100.00
11444;BME280;5778;47.856;12.154;2023-01-16T03:20:19;95135.16;;;-0.60;100.00
11444;BME280;5778;47.856;12.154;2023-01-16T03:22:53;95126.38;;;-0.65;100.00
11444;BME280;5778;47.856;12.154;2023-01-16T03:25:27;95123.09;;;-0.54;100.00
11444;BME280;5778;47.856;12.154;2023-01-16T03:28:02;95109.72;;;-0.40;100.00
11444;BME280;5778;47.856;12.154;2023-01-16T03:30:41;95107.25;;;-0.35;100.00
11444;BME280;5778;47.856;12.154;2023-01-16T03:33:20;95099.22;;;-0.33;100.00
11444;BME280;5778;47.856;12.154;2023-01-16T03:35:54;95087.34;;;-0.29;100.00
11444;BME280;5778;47.856;12.154;2023-01-16T03:38:24;95086.22;;;-0.22;100.00
11444;BME280;5778;47.856;12.154;2023-01-16T03:40:56;95087.84;;;-0.21;100.00
11444;BME280;5778;47.856;12.154;2023-01-16T03:43:30;95074.47;;;-0.49;100.00
11444;BME280;5778;47.856;12.154;2023-01-16T03:46:01;95080.31;;;-0.53;100.00
11444;BME280;5778;47.856;12.154;2023-01-16T03:48:36;95070.31;;;-0.56;100.00
11444;BME280;5778;47.856;12.154;2023-01-16T03:51:07;95065.31;;;-0.40;100.00
11444;BME280;5778;47.856;12.154;2023-01-16T03:53:38;95055.03;;;-0.35;100.00
11444;BME280;5778;47.856;12.154;2023-01-16T03:56:13;95042.19;;;-0.37;100.00
11444;BME280;5778;47.856;12.154;2023-01-16T03:58:43;95044.75;;;-0.30;100.00
11444;BME280;5778;47.856;12.154;2023-01-16T04:01:18;95030.44;;;-0.45;100.00
11444;BME280;5778;47.856;12.154;2023-01-16T04:03:56;95025.69;;;-0.55;100.00
11444;BME280;5778;47.856;12.154;2023-01-16T04:06:32;95018.16;;;-0.63;100.00
11444;BME280;5778;47.856;12.154;2023-01-16T04:09:06;95012.78;;;-0.50;100.00
11444;BME280;5778;47.856;12.154;2023-01-16T04:11:38;95006.69;;;-0.44;100.00
11444;BME280;5778;47.856;12.154;2023-01-16T04:14:08;95000.59;;;-0.56;100.00
11444;BME280;5778;47.856;12.154;2023-01-16T04:16:36;94990.25;;;-0.62;100.00
11444;BME280;5778;47.856;12.154;2023-01-16T04:19:05;94994.22;;;-0.60;100.00
11444;BME280;5778;47.856;12.154;2023-01-16T04:21:34;94982.47;;;-0.51;100.00
11444;BME280;5778;47.856;12.154;2023-01-16T04:24:01;94963.91;;;-0.61;100.00
11444;BME280;5778;47.856;12.154;2023-01-16T04:26:29;94955.00;;;-0.71;100.00
11444;BME280;5778;47.856;12.154;2023-01-16T04:28:56;94948.91;;;-0.65;100.00
11444;BME280;5778;47.856;12.154;2023-01-16T04:31:24;94942.59;;;-0.58;100.00
11444;BME280;5778;47.856;12.154;2023-01-16T04:33:54;94936.09;;;-0.49;100.00
11444;BME280;5778;47.856;12.154;2023-01-16T04:36:21;94935.06;;;-0.48;100.00
11444;BME280;5778;47.856;12.154;2023-01-16T04:38:50;94938.16;;;-0.57;100.00
11444;BME280;5778;47.856;12.154;2023-01-16T04:41:16;94943.75;;;-0.72;100.00
11444;BME280;5778;47.856;12.154;2023-01-16T04:44:01;94940.25;;;-0.84;100.00
11444;BME280;5778;47.856;12.154;2023-01-16T04:46:28;94928.94;;;-0.78;100.00
11444;BME280;5778;47.856;12.154;2023-01-16T04:48:55;94931.03;;;-0.86;100.00
11444;BME280;5778;47.856;12.154;2023-01-16T04:51:23;94917.34;;;-0.82;100.00
11444;BME280;5778;47.856;12.154;2023-01-16T04:53:52;94912.94;;;-0.81;100.00
11444;BME280;5778;47.856;12.154;2023-01-16T04:56:20;94914.09;;;-0.77;100.00
11444;BME280;5778;47.856;12.154;2023-01-16T04:58:47;94905.06;;;-0.75;100.00
11444;BME280;5778;47.856;12.154;2023-01-16T05:01:20;94896.41;;;-0.93;100.00
11444;BME280;5778;47.856;12.154;2023-01-16T05:03:47;94890.31;;;-1.05;100.00
11444;BME280;5778;47.856;12.154;2023-01-16T05:06:15;94883.38;;;-0.93;100.00
11444;BME280;5778;47.856;12.154;2023-01-16T05:08:43;94878.69;;;-1.09;100.00
11444;BME280;5778;47.856;12.154;2023-01-16T05:11:12;94875.78;;;-1.19;100.00
11444;BME280;5778;47.856;12.154;2023-01-16T05:13:39;94864.41;;;-1.25;100.00
11444;BME280;5778;47.856;12.154;2023-01-16T05:16:07;94857.91;;;-1.16;100.00
11444;BME280;5778;47.856;12.154;2023-01-16T05:18:34;94857.69;;;-1.14;100.00
11444;BME280;5778;47.856;12.154;2023-01-16T05:21:01;94857.47;;;-1.13;100.00
11444;BME280;5778;47.856;12.154;2023-01-16T05:23:30;94846.28;;;-1.20;100.00
11444;BME280;5778;47.856;12.154;2023-01-16T05:25:58;94846.28;;;-1.20;100.00
11444;BME280;5778;47.856;12.154;2023-01-16T05:28:27;94840.41;;;-1.33;100.00
11444;BME280;5778;47.856;12.154;2023-01-16T05:30:54;94841.50;;;-1.41;100.00
11444;BME280;5778;47.856;12.154;2023-01-16T05:33:21;94838.91;;;-1.41;100.00
11444;BME280;5778;47.856;12.154;2023-01-16T05:35:47;94827.31;;;-1.45;100.00
11444;BME280;5778;47.856;12.154;2023-01-16T05:38:16;94820.34;;;-1.33;100.00
11444;BME280;5778;47.856;12.154;2023-01-16T05:40:43;94818.78;;;-1.34;100.00
11444;BME280;5778;47.856;12.154;2023-01-16T05:43:10;94816.81;;;-1.38;100.00
11444;BME280;5778;47.856;12.154;2023-01-16T05:45:39;94807.91;;;-1.31;100.00
11444;BME280;5778;47.856;12.154;2023-01-16T05:48:05;94792.41;;;-1.26;100.00
11444;BME280;5778;47.856;12.154;2023-01-16T05:50:32;94776.34;;;-1.23;100.00
11444;BME280;5778;47.856;12.154;2023-01-16T05:53:00;94769.44;;;-1.17;100.00
11444;BME280;5778;47.856;12.154;2023-01-16T05:55:27;94756.50;;;-1.24;100.00
11444;BME280;5778;47.856;12.154;2023-01-16T05:57:54;94746.19;;;-1.37;100.00
11444;BME280;5778;47.856;12.154;2023-01-16T06:00:21;94738.47;;;-1.43;100.00
11444;BME280;5778;47.856;12.154;2023-01-16T06:02:49;94729.84;;;-1.62;100.00
11444;BME280;5778;47.856;12.154;2023-01-16T06:05:16;94723.47;;;-1.66;100.00
11444;BME280;5778;47.856;12.154;2023-01-16T06:07:43;94716.06;;;-1.69;100.00
11444;BME280;5778;47.856;12.154;2023-01-16T06:10:10;94707.22;;;-1.86;100.00
11444;BME280;5778;47.856;12.154;2023-01-16T06:12:37;94714.31;;;-1.93;100.00
11444;BME280;5778;47.856;12.154;2023-01-16T06:15:05;94713.28;;;-1.92;100.00
11444;BME280;5778;47.856;12.154;2023-01-16T06:17:33;94707.16;;;-1.79;100.00
11444;BME280;5778;47.856;12.154;2023-01-16T06:20:01;94707.09;;;-1.73;100.00
11444;BME280;5778;47.856;12.154;2023-01-16T06:22:28;94700.00;;;-1.66;100.00
11444;BME280;5778;47.856;12.154;2023-01-16T06:24:55;94700.06;;;-1.72;100.00
11444;BME280;5778;47.856;12.154;2023-01-16T06:27:22;94694.44;;;-1.69;100.00
11444;BME280;5778;47.856;12.154;2023-01-16T06:29:48;94685.53;;;-1.62;100.00
11444;BME280;5778;47.856;12.154;2023-01-16T06:32:15;94685.97;;;-1.65;100.00
11444;BME280;5778;47.856;12.154;2023-01-16T06:34:43;94668.81;;;-1.72;100.00
11444;BME280;5778;47.856;12.154;2023-01-16T06:37:11;94667.88;;;-1.78;100.00
11444;BME280;5778;47.856;12.154;2023-01-16T06:39:38;94666.44;;;-1.74;100.00
11444;BME280;5778;47.856;12.154;2023-01-16T06:42:05;94655.50;;;-1.64;100.00
11444;BME280;5778;47.856;12.154;2023-01-16T06:44:33;94644.88;;;-1.63;100.00
11444;BME280;5778;47.856;12.154;2023-01-16T06:47:00;94639.34;;;-1.55;100.00
11444;BME280;5778;47.856;12.154;2023-01-16T06:49:28;94631.75;;;-1.56;100.00
11444;BME280;5778;47.856;12.154;2023-01-16T06:51:55;94632.28;;;-1.66;100.00
11444;BME280;5778;47.856;12.154;2023-01-16T06:54:23;94624.59;;;-1.61;100.00
11444;BME280;5778;47.856;12.154;2023-01-16T06:56:50;94619.38;;;-1.61;100.00
11444;BME280;5778;47.856;12.154;2023-01-16T06:59:17;94622.13;;;-1.56;100.00
11444;BME280;5778;47.856;12.154;2023-01-16T07:01:44;94605.19;;;-1.47;100.00
11444;BME280;5778;47.856;12.154;2023-01-16T07:04:11;94604.69;;;-1.26;100.00
11444;BME280;5778;47.856;12.154;2023-01-16T07:06:38;94596.63;;;-1.36;100.00
11444;BME280;5778;47.856;12.154;2023-01-16T07:09:06;94586.06;;;-1.41;100.00
11444;BME280;5778;47.856;12.154;2023-01-16T07:11:35;94576.75;;;-1.48;100.00
11444;BME280;5778;47.856;12.154;2023-01-16T07:14:02;94562.75;;;-1.54;100.00
11444;BME280;5778;47.856;12.154;2023-01-16T07:16:46;94556.66;;;-1.48;100.00
11444;BME280;5778;47.856;12.154;2023-01-16T07:19:30;94552.44;;;-1.60;100.00
11444;BME280;5778;47.856;12.154;2023-01-16T07:22:16;94546.91;;;-1.52;100.00
11444;BME280;5778;47.856;12.154;2023-01-16T07:25:07;94544.94;;;-1.39;100.00
11444;BME280;5778;47.856;12.154;2023-01-16T07:27:37;94527.00;;;-1.47;100.00
11444;BME280;5778;47.856;12.154;2023-01-16T07:30:05;94523.97;;;-1.32;100.00
11444;BME280;5778;47.856;12.154;2023-01-16T07:32:33;94520.81;;;-1.23;100.00
11444;BME280;5778;47.856;12.154;2023-01-16T07:35:01;94511.94;;;-1.33;100.00
11444;BME280;5778;47.856;12.154;2023-01-16T07:37:28;94497.91;;;-1.32;100.00
11444;BME280;5778;47.856;12.154;2023-01-16T07:39:55;94488.72;;;-1.35;100.00
11444;BME280;5778;47.856;12.154;2023-01-16T07:42:22;94481.84;;;-1.18;100.00
11444;BME280;5778;47.856;12.154;2023-01-16T07:44:50;94466.19;;;-1.06;100.00
11444;BME280;5778;47.856;12.154;2023-01-16T07:47:17;94460.44;;;-0.97;100.00
11444;BME280;5778;47.856;12.154;2023-01-16T07:49:43;94453.06;;;-0.88;100.00
11444;BME280;5778;47.856;12.154;2023-01-16T07:52:11;94448.44;;;-0.98;100.00
11444;BME280;5778;47.856;12.154;2023-01-16T07:54:38;94437.16;;;-0.75;100.00
11444;BME280;5778;47.856;12.154;2023-01-16T07:57:06;94430.59;;;-0.78;100.00
11444;BME280;5778;47.856;12.154;2023-01-16T07:59:33;94431.03;;;-0.69;100.00
11444;BME280;5778;47.856;12.154;2023-01-16T08:02:02;94419.91;;;-0.53;100.00
11444;BME280;5778;47.856;12.154;2023-01-16T08:04:28;94412.97;;;-0.48;100.00
11444;BME280;5778;47.856;12.154;2023-01-16T08:06:55;94406.25;;;-0.44;100.00
11444;BME280;5778;47.856;12.154;2023-01-16T08:09:22;94395.22;;;-0.34;100.00
11444;BME280;5778;47.856;12.154;2023-01-16T08:11:49;94390.13;;;-0.29;100.00
11444;BME280;5778;47.856;12.154;2023-01-16T08:14:16;94375.88;;;-0.22;100.00
11444;BME280;5778;47.856;12.154;2023-01-16T08:16:43;94366.94;;;0.02;100.00
11444;BME280;5778;47.856;12.154;2023-01-16T08:19:11;94371.94;;;0.20;100.00
11444;BME280;5778;47.856;12.154;2023-01-16T08:21:38;94359.50;;;0.27;100.00
11444;BME280;5778;47.856;12.154;2023-01-16T08:24:05;94347.66;;;0.52;100.00
11444;BME280;5778;47.856;12.154;2023-01-16T08:26:32;94331.56;;;0.60;100.00
11444;BME280;5778;47.856;12.154;2023-01-16T08:28:59;94328.56;;;0.52;100.00
11444;BME280;5778;47.856;12.154;2023-01-16T08:31:28;94324.09;;;0.69;100.00
11444;BME280;5778;47.856;12.154;2023-01-16T08:33:55;94328.13;;;0.93;100.00
11444;BME280;5778;47.856;12.154;2023-01-16T08:36:24;94315.28;;;0.91;100.00
11444;BME280;5778;47.856;12.154;2023-01-16T08:38:51;94310.91;;;1.18;100.00
11444;BME280;5778;47.856;12.154;2023-01-16T08:41:18;94311.16;;;1.38;100.00
11444;BME280;5778;47.856;12.154;2023-01-16T08:44:02;94301.66;;;1.54;100.00
11444;BME280;5778;47.856;12.154;2023-01-16T08:46:53;94291.84;;;1.66;100.00
11444;BME280;5778;47.856;12.154;2023-01-16T08:49:38;94284.50;;;1.68;100.00
11444;BME280;5778;47.856;12.154;2023-01-16T08:52:24;94274.81;;;1.95;100.00
11444;BME280;5778;47.856;12.154;2023-01-16T08:54:56;94275.13;;;2.30;100.00
11444;BME280;5778;47.856;12.154;2023-01-16T08:57:23;94262.09;;;2.40;100.00
11444;BME280;5778;47.856;12.154;2023-01-16T08:59:50;94259.53;;;2.50;100.00
11444;BME280;5778;47.856;12.154;2023-01-16T09:02:17;94253.94;;;2.73;100.00
11444;BME280;5778;47.856;12.154;2023-01-16T09:04:44;94253.97;;;2.83;100.00
11444;BME280;5778;47.856;12.154;2023-01-16T09:07:11;94244.56;;;2.92;100.00
11444;BME280;5778;47.856;12.154;2023-01-16T09:09:40;94248.75;;;2.88;100.00
11444;BME280;5778;47.856;12.154;2023-01-16T09:12:09;94240.72;;;3.09;100.00
11444;BME280;5778;47.856;12.154;2023-01-16T09:14:53;94241.50;;;3.10;100.00
11444;BME280;5778;47.856;12.154;2023-01-16T09:17:22;94237.41;;;3.34;100.00
11444;BME280;5778;47.856;12.154;2023-01-16T09:19:49;94227.22;;;3.47;100.00
11444;BME280;5778;47.856;12.154;2023-01-16T09:22:17;94214.34;;;3.56;100.00
11444;BME280;5778;47.856;12.154;2023-01-16T09:24:45;94208.31;;;3.65;100.00
11444;BME280;5778;47.856;12.154;2023-01-16T09:27:12;94206.78;;;3.89;100.00
11444;BME280;5778;47.856;12.154;2023-01-16T09:29:40;94201.81;;;3.98;100.00
11444;BME280;5778;47.856;12.154;2023-01-16T09:32:07;94199.69;;;4.05;100.00
11444;BME280;5778;47.856;12.154;2023-01-16T09:34:35;94197.84;;;4.15;100.00
11444;BME280;5778;47.856;12.154;2023-01-16T09:37:02;94188.38;;;4.29;100.00
11444;BME280;5778;47.856;12.154;2023-01-16T09:39:29;94182.84;;;4.36;100.00
11444;BME280;5778;47.856;12.154;2023-01-16T09:42:23;94176.22;;;4.48;100.00
11444;BME280;5778;47.856;12.154;2023-01-16T09:45:15;94164.88;;;4.68;100.00
11444;BME280;5778;47.856;12.154;2023-01-16T09:47:46;94161.44;;;4.77;100.00
11444;BME280;5778;47.856;12.154;2023-01-16T09:50:18;94147.94;;;4.94;100.00
11444;BME280;5778;47.856;12.154;2023-01-16T09:52:48;94144.50;;;4.98;100.00
11444;BME280;5778;47.856;12.154;2023-01-16T09:55:39;94139.63;;;5.25;100.00
11444;BME280;5778;47.856;12.154;2023-01-16T09:58:26;94119.06;;;5.27;100.00
11444;BME280;5778;47.856;12.154;2023-01-16T10:01:08;94111.09;;;5.42;100.00
11444;BME280;5778;47.856;12.154;2023-01-16T10:03:36;94113.91;;;5.56;100.00
11444;BME280;5778;47.856;12.154;2023-01-16T10:06:16;94102.72;;;5.69;100.00
11444;BME280;5778;47.856;12.154;2023-01-16T10:08:58;94088.13;;;5.86;100.00
11444;BME280;5778;47.856;12.154;2023-01-16T10:11:32;94074.00;;;6.01;100.00
11444;BME280;5778;47.856;12.154;2023-01-16T10:14:24;94062.88;;;6.04;100.00
11444;BME280;5778;47.856;12.154;2023-01-16T10:17:05;94056.13;;;6.21;100.00
11444;BME280;5778;47.856;12.154;2023-01-16T10:19:51;94052.59;;;6.31;100.00
11444;BME280;5778;47.856;12.154;2023-01-16T10:22:33;94036.41;;;6.37;100.00
11444;BME280;5778;47.856;12.154;2023-01-16T10:25:15;94031.91;;;6.61;100.00
11444;BME280;5778;47.856;12.154;2023-01-16T10:27:55;94027.56;;;6.70;100.00
11444;BME280;5778;47.856;12.154;2023-01-16T10:30:29;94012.00;;;6.69;100.00
11444;BME280;5778;47.856;12.154;2023-01-16T10:33:03;94006.59;;;6.79;100.00
11444;BME280;5778;47.856;12.154;2023-01-16T10:35:34;93993.81;;;6.86;100.00
11444;BME280;5778;47.856;12.154;2023-01-16T10:38:19;93984.47;;;7.12;100.00
11444;BME280;5778;47.856;12.154;2023-01-16T10:40:49;93979.56;;;7.05;100.00
11444;BME280;5778;47.856;12.154;2023-01-16T10:43:27;93974.53;;;7.41;100.00
11444;BME280;5778;47.856;12.154;2023-01-16T10:46:18;93959.91;;;7.30;100.00
11444;BME280;5778;47.856;12.154;2023-01-16T10:49:03;93953.97;;;7.19;100.00
11444;BME280;5778;47.856;12.154;2023-01-16T10:51:47;93950.47;;;7.24;100.00
11444;BME280;5778;47.856;12.154;2023-01-16T10:54:16;93940.31;;;7.31;100.00
11444;BME280;5778;47.856;12.154;2023-01-16T10:56:43;93929.94;;;7.34;100.00
11444;BME280;5778;47.856;12.154;2023-01-16T10:59:11;93920.50;;;7.47;100.00
11444;BME280;5778;47.856;12.154;2023-01-16T11:01:41;93910.81;;;7.56;100.00
11444;BME280;5778;47.856;12.154;2023-01-16T11:04:11;93895.78;;;7.38;100.00
11444;BME280;5778;47.856;12.154;2023-01-16T11:06:38;93882.84;;;7.36;100.00
11444;BME280;5778;47.856;12.154;2023-01-16T11:09:17;93874.13;;;7.22;100.00
11444;BME280;5778;47.856;12.154;2023-01-16T11:11:49;93870.41;;;7.23;100.00
11444;BME280;5778;47.856;12.154;2023-01-16T11:14:35;93859.25;;;7.40;100.00
11444;BME280;5778;47.856;12.154;2023-01-16T11:17:25;93847.06;;;7.57;100.00
11444;BME280;5778;47.856;12.154;2023-01-16T11:20:14;93835.00;;;7.65;100.00
11444;BME280;5778;47.856;12.154;2023-01-16T11:22:47;93826.78;;;7.80;100.00
11444;BME280;5778;47.856;12.154;2023-01-16T11:25:17;93822.16;;;7.99;100.00
11444;BME280;5778;47.856;12.154;2023-01-16T11:27:46;93812.56;;;7.89;100.00
11444;BME280;5778;47.856;12.154;2023-01-16T11:30:18;93799.53;;;7.79;100.00
11444;BME280;5778;47.856;12.154;2023-01-16T11:32:55;93797.38;;;7.95;100.00
11444;BME280;5778;47.856;12.154;2023-01-16T11:35:29;93783.56;;;7.98;100.00
11444;BME280;5778;47.856;12.154;2023-01-16T11:38:00;93785.03;;;7.90;100.00
11444;BME280;5778;47.856;12.154;2023-01-16T11:40:31;93767.34;;;8.13;100.00
11444;BME280;5778;47.856;12.154;2023-01-16T11:42:58;93759.94;;;8.37;100.00
11444;BME280;5778;47.856;12.154;2023-01-16T11:45:45;93757.13;;;8.33;100.00
11444;BME280;5778;47.856;12.154;2023-01-16T11:48:36;93747.44;;;8.29;100.00
11444;BME280;5778;47.856;12.154;2023-01-16T11:51:06;93739.31;;;8.25;100.00
11444;BME280;5778;47.856;12.154;2023-01-16T11:53:34;93747.06;;;8.44;100.00
11444;BME280;5778;47.856;12.154;2023-01-16T11:56:29;93727.19;;;8.55;100.00
11444;BME280;5778;47.856;12.154;2023-01-16T11:59:10;93726.53;;;8.71;100.00
11444;BME280;5778;47.856;12.154;2023-01-16T12:01:52;93715.88;;;8.85;100.00
11444;BME280;5778;47.856;12.154;2023-01-16T12:04:45;93701.19;;;8.79;100.00
11444;BME280;5778;47.856;12.154;2023-01-16T12:07:40;93685.69;;;9.03;100.00
11444;BME280;5778;47.856;12.154;2023-01-16T12:10:22;93667.53;;;9.18;100.00
11444;BME280;5778;47.856;12.154;2023-01-16T12:12:58;93662.47;;;9.47;100.00
11444;BME280;5778;47.856;12.154;2023-01-16T12:15:53;93655.47;;;9.60;100.00
11444;BME280;5778;47.856;12.154;2023-01-16T12:18:31;93652.69;;;9.82;83.23
11444;BME280;5778;47.856;12.154;2023-01-16T12:21:03;93645.84;;;10.06;82.59
11444;BME280;5778;47.856;12.154;2023-01-16T12:23:50;93646.09;;;10.47;100.00
11444;BME280;5778;47.856;12.154;2023-01-16T12:26:23;93634.25;;;10.28;100.00
11444;BME280;5778;47.856;12.154;2023-01-16T12:29:02;93628.97;;;10.19;100.00
11444;BME280;5778;47.856;12.154;2023-01-16T12:31:46;93633.94;;;10.38;83.74
11444;BME280;5778;47.856;12.154;2023-01-16T12:37:19;93615.78;;;10.57;92.65
11444;BME280;5778;47.856;12.154;2023-01-16T12:39:55;93625.53;;;10.36;85.68
11444;BME280;5778;47.856;12.154;2023-01-16T12:42:36;93614.41;;;10.34;70.79
11444;BME280;5778;47.856;12.154;2023-01-16T12:45:31;93610.50;;;10.31;57.10
11444;BME280;5778;47.856;12.154;2023-01-16T12:48:13;93610.06;;;10.21;54.01
11444;BME280;5778;47.856;12.154;2023-01-16T12:50:56;93610.69;;;9.92;54.21
11444;BME280;5778;47.856;12.154;2023-01-16T12:53:42;93606.00;;;9.98;54.90
11444;BME280;5778;47.856;12.154;2023-01-16T12:56:27;93606.31;;;9.62;53.70
11444;BME280;5778;47.856;12.154;2023-01-16T12:59:02;93602.88;;;9.45;55.66
11444;BME280;5778;47.856;12.154;2023-01-16T13:01:35;93603.31;;;9.38;53.93
11444;BME280;5778;47.856;12.154;2023-01-16T13:04:11;93600.34;;;9.31;52.96
11444;BME280;5778;47.856;12.154;2023-01-16T13:06:44;93599.56;;;9.31;54.86
11444;BME280;5778;47.856;12.154;2023-01-16T13:09:17;93602.53;;;9.21;54.35
11444;BME280;5778;47.856;12.154;2023-01-16T13:11:56;93605.94;;;9.30;57.76
11444;BME280;5778;47.856;12.154;2023-01-16T13:14:42;93612.63;;;9.10;54.02
11444;BME280;5778;47.856;12.154;2023-01-16T13:17:17;93607.00;;;9.03;57.52
11444;BME280;5778;47.856;12.154;2023-01-16T13:19:49;93606.66;;;8.96;59.26
11444;BME280;5778;47.856;12.154;2023-01-16T13:22:21;93609.44;;;8.83;58.92
11444;BME280;5778;47.856;12.154;2023-01-16T13:24:54;93610.50;;;8.51;65.89
11444;BME280;5778;47.856;12.154;2023-01-16T13:27:31;93613.88;;;8.35;74.90
11444;BME280;5778;47.856;12.154;2023-01-16T13:30:06;93611.09;;;8.18;79.05
11444;BME280;5778;47.856;12.154;2023-01-16T13:32:38;93610.41;;;8.12;82.85
11444;BME280;5778;47.856;12.154;2023-01-16T13:35:12;93605.25;;;8.07;86.69